Flight Track Log - Related Links

Times and Time Zones

All times are in EDT time to prevent confusion due to time zone crossing. See the NKS216 flight status page for this flight to view local times or setup timezone preferences in your user account.

Time Position Orientation Groundspeed Altitude Reporting Facility
EDT Latitude Longitude Course Direction KTS MPH feet Rate Location/Type
Wed 05:09:05 AM 33.9380 -118.4580 224° Southwest 166 191 1,700  Level FlightAware ADS-B
Wed 05:09:26 AM 33.9260 -118.4710 222° Southwest 186 214 2,200 1,448 Climbing FlightAware ADS-B
Wed 05:10:03 AM 33.8980 -118.5010 222° Southwest 232 267 3,100 1,385 Climbing FlightAware ADS-B
Wed 05:10:31 AM 33.8690 -118.5240 213° Southwest 289 333 3,700 2,100 Climbing FlightAware ADS-B
Wed 05:10:43 AM 33.8520 -118.5270 188° South 290 334 4,500 3,616 Climbing FlightAware ADS-B
Wed 05:11:44 AM 33.7750 -118.5230 178° South 285 328 8,100 3,459 Climbing FlightAware ADS-B
Wed 05:12:08 AM 33.7430 -118.5220 179° South 287 330 9,400 2,889 Climbing FlightAware ADS-B
Wed 05:12:38 AM 33.7040 -118.5130 169° South 310 357 10,700 2,429 Climbing FlightAware ADS-B
Wed 05:12:50 AM 33.6900 -118.4980 138° Southeast 328 377 11,100 1,600 Climbing FlightAware ADS-B
Wed 05:13:08 AM 33.6780 -118.4660 114° Southeast 351 404 11,500 1,345 Climbing FlightAware ADS-B
Wed 05:13:48 AM 33.6600 -118.3880 105° East 386 444 12,400 1,829 Climbing FlightAware ADS-B
Wed 05:14:30 AM 33.6440 -118.2990 102° East 400 460 14,000 2,241 Climbing FlightAware ADS-B
Wed 05:15:11 AM 33.6440 -118.2080 90° East 409 471 15,500 2,195 Climbing FlightAware ADS-B
Wed 05:15:52 AM 33.6400 -118.1110 93° East 418 481 17,000 2,000 Climbing FlightAware ADS-B
Wed 05:16:38 AM 33.6320 -118.0050 95° East 429 494 18,400 1,909 Climbing FlightAware ADS-B
Wed 05:17:20 AM 33.6250 -117.9040 95° East 435 501 19,800 1,880 Climbing FlightAware ADS-B
Wed 05:18:01 AM 33.6180 -117.8060 95° East 441 507 21,000 1,683 Climbing FlightAware ADS-B
Wed 05:18:42 AM 33.6110 -117.7040 95° East 448 516 22,100 1,553 Climbing FlightAware ADS-B
Wed 05:19:26 AM 33.6040 -117.5950 94° East 457 526 23,200 1,571 Climbing FlightAware ADS-B
Wed 05:20:06 AM 33.5960 -117.4930 95° East 461 531 24,300 1,537 Climbing FlightAware ADS-B
Wed 05:20:48 AM 33.5890 -117.3830 94° East 472 543 25,300 1,395 Climbing FlightAware ADS-B
Wed 05:21:32 AM 33.5800 -117.2700 95° East 479 551 26,300 1,357 Climbing FlightAware ADS-B
Wed 05:22:12 AM 33.5720 -117.1630 95° East 485 558 27,200 1,357 Climbing FlightAware ADS-B
Wed 05:22:56 AM 33.5630 -117.0430 95° East 492 566 28,200 1,286 Climbing FlightAware ADS-B
Wed 05:23:36 AM 33.5550 -116.9340 95° East 498 573 29,000 1,171 Climbing FlightAware ADS-B
Wed 05:24:18 AM 33.5460 -116.8200 95° East 504 580 29,800 1,103 Climbing FlightAware ADS-B
Wed 05:25:03 AM 33.5370 -116.6970 95° East 510 587 30,600 1,313 Climbing FlightAware ADS-B
Wed 05:25:54 AM 33.5250 -116.5510 96° East 506 582 31,900 1,340 Climbing FlightAware ADS-B
Wed 05:26:37 AM 33.5160 -116.4310 95° East 511 588 32,700 1,159 Climbing FlightAware ADS-B
Wed 05:27:22 AM 33.5060 -116.3050 95° East 511 588 33,600 1,271 Climbing FlightAware ADS-B
Wed 05:28:02 AM 33.4960 -116.1930 96° East 505 581 34,500 963 Climbing FlightAware ADS-B
Wed 05:28:43 AM 33.4870 -116.0750 95° East 513 590 34,900 795 Climbing FlightAware ADS-B
Wed 05:29:25 AM 33.4770 -115.9640 96° East 509 586 35,600 918 Climbing FlightAware ADS-B
Wed 05:30:21 AM 33.4640 -115.8020 95° East 510 587 36,400 765 Climbing FlightAware ADS-B
Wed 05:31:07 AM 33.4530 -115.6830 96° East 513 590 36,900 444 Climbing FlightAware ADS-B
Wed 05:31:42 AM 33.4440 -115.5780 96° East 512 589 37,000 79 Climbing FlightAware ADS-B
Wed 05:32:23 AM 33.4340 -115.4640 96° East 514 592 37,000  Level FlightAware ADS-B
Wed 05:33:25 AM 33.4190 -115.2960 96° East 514 592 37,000  Level FlightAware ADS-B
Wed 05:34:02 AM 33.4120 -115.2070 95° East 514 592 37,000  Level FlightAware ADS-B
Wed 05:35:05 AM 33.3980 -115.0550 96° East 514 592 37,000  Level FlightAware ADS-B
Wed 05:35:44 AM 33.3900 -114.9620 96° East 514 592 37,000  Level FlightAware ADS-B
Wed 05:36:20 AM 33.3820 -114.8750 96° East 514 592 37,000  Level FlightAware ADS-B
Wed 05:37:10 AM 33.3720 -114.7540 96° East 514 592 37,000  Level FlightAware ADS-B
Wed 05:37:47 AM 33.3640 -114.6650 96° East 514 592 37,000  Level FlightAware ADS-B
Wed 05:38:35 AM 33.3540 -114.5500 96° East 514 592 37,000  Level FlightAware ADS-B
Wed 05:39:14 AM 33.3250 -114.2840 97° East 521 600 37,000  Level FlightAware ADS-B
Wed 05:39:53 AM 33.3140 -114.1730 97° East 522 601 37,000  Level FlightAware ADS-B
Wed 05:40:50 AM 33.2970 -114.0080 97° East 522 601 37,000  Level FlightAware ADS-B
Wed 05:41:34 AM 33.2850 -113.8830 97° East 523 602 37,000  Level FlightAware ADS-B
Wed 05:42:16 AM 33.2730 -113.7670 97° East 522 601 37,000  Level FlightAware ADS-B
Wed 05:43:11 AM 33.2610 -113.6510 97° East 520 598 37,000  Level FlightAware ADS-B
Wed 05:44:08 AM 33.2450 -113.4980 97° East 518 596 37,000  Level FlightAware ADS-B
Wed 05:44:47 AM 33.2340 -113.3930 97° East 516 594 37,000  Level FlightAware ADS-B
Wed 05:45:47 AM 33.2100 -113.1650 97° East 515 593 37,000  Level FlightAware ADS-B
Wed 05:46:23 AM 33.1990 -113.0640 97° East 514 592 37,000  Level FlightAware ADS-B
Wed 05:47:10 AM 33.1850 -112.9310 97° East 515 593 37,000  Level FlightAware ADS-B
Wed 05:47:54 AM 33.1710 -112.8070 98° East 516 594 37,000  Level FlightAware ADS-B
Wed 05:48:34 AM 33.1590 -112.6950 97° East 517 595 37,000  Level FlightAware ADS-B
Wed 05:49:19 AM 33.1450 -112.5690 98° East 517 595 37,000  Level FlightAware ADS-B
Wed 05:49:58 AM 33.1320 -112.4570 98° East 517 595 37,000  Level FlightAware ADS-B
Wed 05:50:36 AM 33.1200 -112.3510 98° East 516 594 37,000  Level FlightAware ADS-B
Wed 05:51:22 AM 33.1050 -112.2190 98° East 517 595 37,000  Level FlightAware ADS-B
Wed 05:52:04 AM 33.0910 -112.1040 98° East 516 594 37,000  Level FlightAware ADS-B
Wed 05:52:46 AM 33.0770 -111.9840 98° East 517 595 37,000  Level FlightAware ADS-B
Wed 05:53:26 AM 33.0640 -111.8710 98° East 515 593 37,000  Level FlightAware ADS-B
Wed 05:54:13 AM 33.0490 -111.7430 98° East 515 593 37,000  Level FlightAware ADS-B
Wed 05:54:52 AM 33.0360 -111.6300 98° East 515 593 37,000  Level FlightAware ADS-B
Wed 05:55:42 AM 33.0280 -111.5640 98° East 514 592 37,000  Level FlightAware ADS-B
Wed 05:56:29 AM 33.0130 -111.4380 98° East 513 590 37,000  Level FlightAware ADS-B
Wed 05:57:08 AM 32.9990 -111.3230 98° East 513 590 37,000  Level FlightAware ADS-B
Wed 05:57:52 AM 32.9810 -111.1800 98° East 512 589 37,000  Level FlightAware ADS-B
Wed 05:58:36 AM 32.9680 -111.0760 98° East 513 590 37,000  Level FlightAware ADS-B
Wed 05:59:16 AM 32.9460 -110.9010 98° East 514 592 37,000  Level FlightAware ADS-B
Wed 06:00:00 AM 32.9300 -110.7730 98° East 512 589 37,000  Level FlightAware ADS-B
Wed 06:00:54 AM 32.9130 -110.6390 99° East 510 587 37,000  Level FlightAware ADS-B
Wed 06:01:39 AM 32.8940 -110.4960 99° East 508 585 37,000 -71 Level FlightAware ADS-B
Wed 06:02:19 AM 32.8800 -110.3870 99° East 510 587 36,900  Descending FlightAware ADS-B
Wed 06:03:00 AM 32.8660 -110.2750 98° East 510 587 37,000 70 Climbing FlightAware ADS-B
Wed 06:03:45 AM 32.8490 -110.1460 99° East 511 588 37,000  Level FlightAware ADS-B
Wed 06:04:28 AM 32.8330 -110.0310 99° East 510 587 37,000  Level FlightAware ADS-B
Wed 06:05:07 AM 32.8190 -109.9210 99° East 511 588 37,000  Level FlightAware ADS-B
Wed 06:05:47 AM 32.8070 -109.8360 100° East 511 588 37,000  Level FlightAware ADS-B
Wed 06:06:32 AM 32.7870 -109.6900 99° East 512 589 37,000  Level FlightAware ADS-B
Wed 06:07:13 AM 32.7710 -109.5710 99° East 511 588 37,000  Level FlightAware ADS-B
Wed 06:07:55 AM 32.7560 -109.4570 99° East 511 588 37,000  Level FlightAware ADS-B
Wed 06:08:35 AM 32.7400 -109.3440 100° East 511 588 37,000  Level FlightAware ADS-B
Wed 06:09:21 AM 32.7230 -109.2190 99° East 512 589 37,000  Level FlightAware ADS-B
Wed 06:10:03 AM 32.7060 -109.1020 100° East 510 587 37,000  Level FlightAware ADS-B
Wed 06:10:44 AM 32.6900 -108.9900 100° East 508 585 37,000  Level FlightAware ADS-B
Wed 06:11:40 AM 32.6750 -108.8800 99° East 510 587 37,000  Level FlightAware ADS-B
Wed 06:12:25 AM 32.6500 -108.7110 100° East 508 585 37,000  Level FlightAware ADS-B
Wed 06:13:04 AM 32.6350 -108.6060 100° East 506 582 37,000  Level FlightAware ADS-B
Wed 06:13:49 AM 32.6170 -108.4850 100° East 507 583 37,000  Level FlightAware ADS-B
Wed 06:14:32 AM 32.6000 -108.3640 99° East 507 583 37,000  Level FlightAware ADS-B
Wed 06:15:08 AM 32.5860 -108.2700 100° East 507 583 37,000  Level FlightAware ADS-B
Wed 06:16:04 AM 32.5670 -108.1390 100° East 505 581 37,000  Level FlightAware ADS-B
Wed 06:17:00 AM 32.5440 -107.9860 100° East 505 581 37,000  Level FlightAware ADS-B
Wed 06:17:49 AM 32.5290 -107.8720 99° East 505 581 37,000  Level FlightAware ADS-B
Wed 06:18:25 AM 32.5180 -107.7890 99° East 505 581 37,000  Level FlightAware ADS-B
Wed 06:18:49 AM 32.5110 -107.7330 98° East 505 581 37,000  Level FlightAware ADS-B
Wed 06:19:44 AM 32.4930 -107.6050 99° East 505 581 37,000  Level FlightAware ADS-B
Wed 06:20:20 AM 32.4820 -107.5210 99° East 505 581 37,000  Level FlightAware ADS-B
Wed 06:21:50 AM 32.4190 -107.1780 102° East 503 579 37,000  Level FlightAware ADS-B
Wed 06:22:28 AM 32.4050 -107.0850 100° East 503 579 37,000  Level FlightAware ADS-B
Wed 06:23:08 AM 32.3850 -106.9640 101° East 502 578 37,000  Level FlightAware ADS-B
Wed 06:23:54 AM 32.3660 -106.8430 101° East 504 580 37,000  Level FlightAware ADS-B
Wed 06:24:34 AM 32.3480 -106.7310 101° East 503 579 37,000  Level FlightAware ADS-B
Wed 06:25:45 AM 32.3230 -106.5730 101° East 503 579 37,000  Level FlightAware ADS-B
Wed 06:26:29 AM 32.2980 -106.4230 101° East 504 580 37,000  Level FlightAware ADS-B
Wed 06:27:11 AM 32.2790 -106.3100 101° East 505 581 37,000  Level FlightAware ADS-B
Wed 06:27:57 AM 32.2590 -106.1890 101° East 504 580 37,000  Level FlightAware ADS-B
Wed 06:28:37 AM 32.2410 -106.0780 101° East 502 578 37,000  Level FlightAware ADS-B
Wed 06:29:19 AM 32.2260 -105.9910 101° East 501 577 37,000  Level FlightAware ADS-B
Wed 06:30:03 AM 32.2050 -105.8650 101° East 500 575 37,000  Level FlightAware ADS-B
Wed 06:30:41 AM 32.1910 -105.7790 101° East 500 575 37,000  Level FlightAware ADS-B
Wed 06:31:19 AM 32.1770 -105.6920 101° East 500 575 37,000  Level FlightAware ADS-B
Wed 06:32:07 AM 32.1590 -105.5830 101° East 500 575 37,000  Level FlightAware ADS-B
Wed 06:32:43 AM 32.1450 -105.5010 101° East 500 575 37,000  Level FlightAware ADS-B
Wed 06:33:33 AM 32.1270 -105.3870 101° East 500 575 37,000  Level FlightAware ADS-B
Wed 06:34:07 AM 32.1140 -105.3090 101° East 500 575 37,000  Level FlightAware ADS-B
Wed 06:34:54 AM 32.0960 -105.2020 101° East 500 575 37,000  Level FlightAware ADS-B
Wed 06:35:33 AM 32.0820 -105.1130 100° East 500 575 37,000  Level FlightAware ADS-B
Wed 06:36:22 AM 32.0630 -105.0020 101° East 500 575 37,000  Level FlightAware ADS-B
Wed 06:36:59 AM 32.0490 -104.9170 101° East 500 575 37,000  Level FlightAware ADS-B
Wed 06:37:44 AM 31.9940 -104.6470 103° East 490 564 37,000  Level FlightAware ADS-B
Wed 06:38:21 AM 31.9790 -104.5610 102° East 490 564 37,000  Level FlightAware ADS-B
Wed 06:39:10 AM 31.9610 -104.4520 101° East 490 564 37,000  Level FlightAware ADS-B
Wed 06:39:48 AM 31.9350 -104.3220 103° East 490 564 37,000  Level FlightAware ADS-B
Wed 06:40:25 AM 31.9200 -104.2380 102° East 489 563 37,000  Level FlightAware ADS-B
Wed 06:41:13 AM 31.9010 -104.1320 102° East 489 563 37,000  Level FlightAware ADS-B
Wed 06:41:49 AM 31.8860 -104.0520 102° East 489 563 37,000  Level FlightAware ADS-B
Wed 06:42:37 AM 31.8670 -103.9460 102° East 489 563 37,000  Level FlightAware ADS-B
Wed 06:43:13 AM 31.8530 -103.8660 102° East 489 563 37,000  Level FlightAware ADS-B
Wed 06:43:59 AM 31.8340 -103.7640 102° East 489 563 37,000  Level FlightAware ADS-B
Wed 06:44:47 AM 31.8150 -103.6580 102° East 489 563 37,000  Level FlightAware ADS-B
Wed 06:45:34 AM 31.7960 -103.5540 102° East 489 563 37,000  Level FlightAware ADS-B
Wed 06:46:22 AM 31.7770 -103.4480 102° East 489 563 37,000  Level FlightAware ADS-B
Wed 06:47:05 AM 31.7240 -103.1910 104° East 486 559 37,000  Level FlightAware ADS-B
Wed 06:47:47 AM 31.7070 -103.0970 102° East 485 558 37,000  Level FlightAware ADS-B
Wed 06:48:22 AM 31.6930 -103.0210 102° East 485 558 37,000  Level FlightAware ADS-B
Wed 06:49:11 AM 31.6730 -102.9130 102° East 485 558 37,000  Level FlightAware ADS-B
Wed 06:49:49 AM 31.6580 -102.8300 102° East 485 558 37,000  Level FlightAware ADS-B
Wed 06:51:34 AM 31.6080 -102.5960 104° East 480 552 37,000  Level FlightAware ADS-B
Wed 06:52:13 AM 31.5710 -102.4090 103° East 480 552 37,000  Level FlightAware ADS-B
Wed 06:52:57 AM 31.5490 -102.2960 103° East 479 551 37,000  Level FlightAware ADS-B
Wed 06:53:41 AM 31.5270 -102.1830 103° East 480 552 37,000  Level FlightAware ADS-B
Wed 06:54:21 AM 31.5070 -102.0860 104° East 480 552 37,000  Level FlightAware ADS-B
Wed 06:54:43 AM 31.4954 -102.0280 103° East 481 554 37,000  Level FlightAware ADS-B
Wed 06:55:22 AM 31.4751 -101.9270 103° East 482 555 37,000  Level FlightAware ADS-B
Wed 06:55:55 AM 31.4580 -101.8450 104° East 482 555 37,000  Level FlightAware ADS-B
Wed 06:56:35 AM 31.4380 -101.7450 103° East 483 556 37,000  Level FlightAware ADS-B
Wed 06:57:17 AM 31.4160 -101.6380 104° East 483 556 37,000  Level FlightAware ADS-B
Wed 06:57:59 AM 31.3940 -101.5310 104° East 483 556 37,000  Level FlightAware ADS-B
Wed 06:58:44 AM 31.3710 -101.4190 103° East 483 556 37,000  Level FlightAware ADS-B
Wed 06:59:24 AM 31.3490 -101.3140 104° East 483 556 37,000  Level FlightAware ADS-B
Wed 07:00:08 AM 31.3260 -101.2040 104° East 483 556 37,000  Level FlightAware ADS-B
Wed 07:00:48 AM 31.3050 -101.1020 104° East 482 555 37,000  Level FlightAware ADS-B
Wed 07:01:28 AM 31.2840 -101.0030 104° East 480 552 37,000  Level FlightAware ADS-B
Wed 07:02:13 AM 31.2600 -100.8900 104° East 479 551 37,000  Level FlightAware ADS-B
Wed 07:02:50 AM 31.2400 -100.7950 104° East 479 551 37,000 -70 Level FlightAware ADS-B
Wed 07:03:39 AM 31.2140 -100.6740 104° East 480 552 36,900  Descending FlightAware ADS-B
Wed 07:04:18 AM 31.1930 -100.5740 104° East 481 554 37,000 74 Climbing FlightAware ADS-B
Wed 07:05:00 AM 31.1710 -100.4690 104° East 482 555 37,000  Level FlightAware ADS-B
Wed 07:05:54 AM 31.1440 -100.3470 104° East 484 557 37,000  Level FlightAware ADS-B
Wed 07:06:36 AM 31.1180 -100.2270 104° East 485 558 37,000  Level FlightAware ADS-B
Wed 07:07:18 AM 31.0950 -100.1200 104° East 484 557 37,000  Level FlightAware ADS-B
Wed 07:08:00 AM 31.0720 -100.0150 104° East 482 555 37,000  Level FlightAware ADS-B
Wed 07:08:44 AM 31.0520 -99.9020 102° East 480 552 37,000 -71 Level FlightAware ADS-B
Wed 07:09:24 AM 31.0480 -99.7980 93° East 480 552 36,900  Descending FlightAware ADS-B
Wed 07:10:08 AM 31.0420 -99.6860 94° East 480 552 37,000 68 Climbing FlightAware ADS-B
Wed 07:10:52 AM 31.0360 -99.5710 93° East 480 552 37,000  Level FlightAware ADS-B
Wed 07:11:45 AM 31.0330 -99.5150 94° East 481 554 37,000  Level FlightAware ADS-B
Wed 07:12:28 AM 31.0240 -99.3260 93° East 484 557 37,000  Level FlightAware ADS-B
Wed 07:13:11 AM 31.0180 -99.2100 93° East 486 559 37,000  Level FlightAware ADS-B
Wed 07:13:51 AM 31.0120 -99.1080 94° East 488 562 37,000  Level FlightAware ADS-B
Wed 07:14:27 AM 31.0070 -99.0160 94° East 489 563 37,000  Level FlightAware ADS-B
Wed 07:15:16 AM 31.0000 -98.8840 94° East 492 566 37,000  Level FlightAware ADS-B
Wed 07:15:31 AM 30.9976 -98.8430 94° East 491 565 37,000  Level FlightAware ADS-B
Wed 07:16:04 AM 30.9928 -98.7575 94° East 492 566 37,000  Level FlightAware ADS-B
Wed 07:16:41 AM 30.9870 -98.6582 94° East 492 566 37,000  Level FlightAware ADS-B
Wed 07:17:19 AM 30.9812 -98.5583 94° East 492 566 37,000  Level FlightAware ADS-B
Wed 07:17:54 AM 30.9760 -98.4676 94° East 491 565 37,000  Level FlightAware ADS-B
Wed 07:18:36 AM 30.9694 -98.3570 94° East 491 565 37,000  Level FlightAware ADS-B
Wed 07:19:10 AM 30.9640 -98.2670 94° East 492 566 37,000  Level FlightAware ADS-B
Wed 07:19:40 AM 30.9591 -98.1873 94° East 493 567 37,000  Level FlightAware ADS-B
Wed 07:20:11 AM 30.9540 -98.1050 94° East 494 568 37,000  Level FlightAware ADS-B
Wed 07:20:18 AM 30.9532 -98.0863 93° East 494 568 37,000  Level FlightAware ADS-B
Wed 07:20:52 AM 30.9475 -97.9975 94° East 494 568 37,000  Level FlightAware ADS-B
Wed 07:21:22 AM 30.9423 -97.9175 94° East 495 570 37,000  Level FlightAware ADS-B
Wed 07:21:58 AM 30.9363 -97.8227 94° East 495 570 37,000  Level FlightAware ADS-B
Wed 07:22:29 AM 30.9311 -97.7404 94° East 495 570 37,000  Level FlightAware ADS-B
Wed 07:22:59 AM 30.9259 -97.6596 94° East 495 570 37,000  Level FlightAware ADS-B
Wed 07:23:29 AM 30.9207 -97.5797 94° East 494 568 37,000 -100 Level FlightAware ADS-B
Wed 07:23:59 AM 30.9153 -97.4993 94° East 495 570 36,900 -492 Descending FlightAware ADS-B
Wed 07:24:30 AM 30.9099 -97.4197 95° East 490 564 36,500 -885 Descending FlightAware ADS-B
Wed 07:25:00 AM 30.9047 -97.3406 94° East 485 558 36,000 -1,304 Descending FlightAware ADS-B
Wed 07:26:02 AM 30.8935 -97.1799 95° East 474 545 34,500 -1,806 Descending FlightAware ADS-B
Wed 07:26:33 AM 30.8882 -97.1033 95° East 474 545 33,200 -2,656 Descending FlightAware ADS-B
Wed 07:27:03 AM 30.8829 -97.0262 95° East 476 548 31,800 -2,800 Descending FlightAware ADS-B
Wed 07:27:33 AM 30.8775 -96.9486 95° East 476 548 30,400 -2,754 Descending FlightAware ADS-B
Wed 07:28:04 AM 30.8721 -96.8719 95° East 474 545 29,000 -2,516 Descending FlightAware ADS-B
Wed 07:28:35 AM 30.8665 -96.7941 95° East 467 537 27,800 -2,357 Descending FlightAware ADS-B
Wed 07:29:00 AM 30.8618 -96.7305 95° East 461 531 26,800 -2,700 Descending FlightAware ADS-B
Wed 07:29:15 AM 30.8545 -96.6934 103° East 463 533 26,000 -3,120 Descending FlightAware ADS-B
Wed 07:29:25 AM 30.8470 -96.6718 112° Southeast 466 536 25,500 -3,429 Descending FlightAware ADS-B
Wed 07:29:29 AM 30.8430 -96.6624 116° Southeast 467 537 25,200 -2,976 Descending FlightAware ADS-B
Wed 07:31:30 AM 30.7163 -96.4011 120° Southeast 449 517 19,300 -2,851 Descending FlightAware ADS-B
Wed 07:32:30 AM 30.6561 -96.2771 119° Southeast 434 499 16,600 -2,702 Descending FlightAware ADS-B
Wed 07:34:01 AM 30.5708 -96.1022 120° Southeast 385 443 12,500 -2,607 Descending FlightAware ADS-B
Wed 07:34:32 AM 30.5449 -96.0488 119° Southeast 371 427 11,300 -1,974 Descending FlightAware ADS-B
Wed 07:35:17 AM 30.5070 -95.9713 120° Southeast 368 423 10,000 -788 Descending FlightAware ADS-B
Wed 07:36:11 AM 30.4622 -95.8807 121° Southeast 365 420 10,000 -98 Level FlightAware ADS-B
Wed 07:36:18 AM 30.4544 -95.8693 131° Southeast 366 421 9,900 -316 Descending FlightAware ADS-B
Wed 07:36:30 AM 30.4382 -95.8548 147° Southeast 362 417 9,900  Level FlightAware ADS-B
Wed 07:37:18 AM 30.3677 -95.8274 163° South 332 382 9,900  Level FlightAware ADS-B
Wed 07:37:33 AM 30.3450 -95.8189 162° South 333 383 9,900 -449 Level FlightAware ADS-B
Wed 07:39:05 AM 30.2185 -95.7701 162° South 298 343 9,100 -836 Descending FlightAware ADS-B
Wed 07:39:35 AM 30.1793 -95.7550 162° South 291 335 8,200 -2,069 Descending FlightAware ADS-B
Wed 07:40:03 AM 30.1445 -95.7415 161° South 285 328 7,100 -2,323 Descending FlightAware ADS-B
Wed 07:40:06 AM 30.1407 -95.7396 157° South 286 329 7,000 -2,571 Descending FlightAware ADS-B
Wed 07:40:10 AM 30.1355 -95.7364 152° Southeast 287 330 6,800 -2,571 Descending FlightAware ADS-B
Wed 07:40:13 AM 30.1321 -95.7340 149° Southeast 287 330 6,700 -2,250 Descending FlightAware ADS-B
Wed 07:40:26 AM 30.1178 -95.7223 145° Southeast 283 326 6,200 -2,129 Descending FlightAware ADS-B
Wed 07:40:44 AM 30.1001 -95.7070 143° Southeast 278 320 5,600 -2,000 Descending FlightAware ADS-B
Wed 07:40:59 AM 30.0839 -95.6927 143° Southeast 272 313 5,100 -2,129 Descending FlightAware ADS-B
Wed 07:41:15 AM 30.0686 -95.6791 142° Southeast 268 308 4,500 -2,063 Descending FlightAware ADS-B
Wed 07:41:31 AM 30.0534 -95.6653 142° Southeast 263 303 4,000 -1,742 Descending FlightAware ADS-B
Wed 07:41:46 AM 30.0391 -95.6521 141° Southeast 260 299 3,600 -1,200 Descending FlightAware ADS-B
Wed 07:42:01 AM 30.0249 -95.6391 142° Southeast 253 291 3,400 -667 Descending FlightAware ADS-B
Wed 07:42:13 AM 30.0146 -95.6291 140° Southeast 248 285 3,300 -800 Descending FlightAware ADS-B
Wed 07:42:16 AM 30.0122 -95.6260 132° Southeast 247 284 3,200 -750 Descending FlightAware ADS-B
Wed 07:42:21 AM 30.0092 -95.6208 124° Southeast 248 285 3,200 -545 Level FlightAware ADS-B
Wed 07:42:27 AM 30.0065 -95.6136 113° Southeast 247 284 3,100 -667 Descending FlightAware ADS-B
Wed 07:42:30 AM 30.0054 -95.6090 105° East 246 283 3,100 -333 Level FlightAware ADS-B
Wed 07:42:45 AM 30.0022 -95.5901 101° East 239 275 3,000 -414 Descending FlightAware ADS-B
Wed 07:42:59 AM 29.9997 -95.5739 100° East 226 260 2,900  Descending FlightAware ADS-B
Wed 07:43:15 AM 29.9971 -95.5561 100° East 211 243 3,000 240 Climbing FlightAware ADS-B
Wed 07:43:24 AM 29.9952 -95.5459 102° East 203 234 3,000  Level FlightAware ADS-B
Wed 07:43:28 AM 29.9946 -95.5412 98° East 202 232 3,000 -462 Level FlightAware ADS-B
Wed 07:43:37 AM 29.9937 -95.5314 96° East 204 235 2,900 -947 Descending FlightAware ADS-B
Wed 07:43:47 AM 29.9934 -95.5213 92° East 204 235 2,700 -1,043 Descending FlightAware ADS-B
Wed 07:44:00 AM 29.9932 -95.5068 91° East 202 232 2,500 -889 Descending FlightAware ADS-B
Wed 07:44:14 AM 29.9932 -95.4915 90° East 203 234 2,300 -1,034 Descending FlightAware ADS-B
Wed 07:44:29 AM 29.9932 -95.4754 90° East 203 234 2,000 -1,125 Descending FlightAware ADS-B
Wed 07:44:46 AM 29.9932 -95.4571 90° East 201 231 1,700 -1,029 Descending FlightAware ADS-B
Wed 07:45:04 AM 29.9933 -95.4393 90° East 188 216 1,400 -882 Descending FlightAware ADS-B
Wed 07:45:20 AM 29.9933 -95.4237 90° East 177 204 1,200 -750 Descending FlightAware ADS-B
Wed 07:45:36 AM 29.9933 -95.4097 90° East 161 185 1,000 -774 Descending FlightAware ADS-B
Wed 07:45:51 AM 29.9933 -95.3975 90° East 148 170 800 -750 Descending FlightAware ADS-B
Wed 07:46:08 AM 29.9934 -95.3843 89° East 140 161 600 -750 Descending FlightAware ADS-B
Wed 07:46:23 AM 29.9934 -95.3731 90° East 135 155 400 -857 Descending FlightAware ADS-B
Wed 07:46:29 AM 29.9934 -95.3688 90° East 133 153 300 -667 Descending FlightAware ADS-B
Wed 07:46:41 AM 29.9934 -95.3607 90° East 130 150 200 -500 Descending FlightAware ADS-B
Wed 07:46:53 AM 29.9934 -95.3523 90° East 130 150 -1,000 Descending FlightAware ADS-B
Wed 07:46:57 AM 29.9934 -95.3496 90° East 127 146  Level FlightAware ADS-B

Login

Don't have an account? Register now (free) for customized features, flight alerts, and more!